Time;durP1;ratioP1;P1;durP2;ratioP2;P2;SDS_P1;SDS_P2;PMS_P1;PMS_P2;Temp;Humidity;BMP_temperature;BMP_pressure;BME280_temperature;BME280_humidity;BME280_pressure;Samples;Min_cycle;Max_cycle;Signal;HPM_P1;HPM_P2
2023/08/16 00:25:21;;;;;;;8.65;3.50;;;;;;;20.14;94.88;101786.91;4813208;29;20171;-63
2023/08/16 00:27:49;;;;;;;9.68;3.38;;;;;;;20.19;94.35;101787.59;4816921;29;20457;-64
2023/08/16 00:30:17;;;;;;;7.95;3.50;;;;;;;20.22;93.92;101792.50;4814780;29;20055;-64
2023/08/16 00:32:45;;;;;;;7.07;3.88;;;;;;;20.20;93.61;101789.25;4804019;29;20050;-64
2023/08/16 00:35:14;;;;;;;7.82;3.60;;;;;;;20.15;93.74;101789.34;4791781;29;20404;-64
2023/08/16 00:37:41;;;;;;;6.28;3.58;;;;;;;20.14;94.25;101795.22;4806936;29;20062;-62
2023/08/16 00:40:10;;;;;;;6.10;3.20;;;;;;;20.17;94.54;101802.88;4805903;29;20066;-64
2023/08/16 00:42:37;;;;;;;6.93;3.58;;;;;;;20.20;94.29;101805.88;4806259;29;20043;-64
2023/08/16 00:45:06;;;;;;;10.43;3.88;;;;;;;20.24;94.25;101794.16;4776027;29;20065;-64
2023/08/16 00:47:34;;;;;;;9.07;4.13;;;;;;;20.23;94.33;101798.91;4790159;29;20055;-64
2023/08/16 00:50:02;;;;;;;9.30;3.92;;;;;;;20.19;94.12;101793.16;4790299;29;20111;-64
2023/08/16 00:52:30;;;;;;;7.38;3.80;;;;;;;20.14;94.71;101798.78;4805970;29;20523;-63
2023/08/16 00:54:58;;;;;;;8.18;3.58;;;;;;;20.07;95.07;101789.28;4774819;29;20066;-63
2023/08/16 00:57:26;;;;;;;11.70;4.13;;;;;;;20.03;95.96;101799.31;4790320;29;20077;-63
2023/08/16 00:59:53;;;;;;;9.02;3.60;;;;;;;20.05;96.28;101802.59;4790245;29;20051;-64
2023/08/16 01:02:23;;;;;;;10.60;3.40;;;;;;;20.06;95.96;101799.53;4789953;29;20054;-63
2023/08/16 01:04:51;;;;;;;10.10;3.80;;;;;;;20.06;96.03;101809.75;4806266;29;20059;-63
2023/08/16 01:07:19;;;;;;;6.72;3.67;;;;;;;20.02;96.31;101808.75;4790360;29;20515;-62
2023/08/16 01:09:47;;;;;;;10.93;4.13;;;;;;;19.97;96.68;101806.91;4775924;29;20059;-64
2023/08/16 01:12:30;;;;;;;7.18;3.45;;;;;;;19.93;96.89;101811.41;4790091;29;20058;-63
2023/08/16 01:15:08;;;;;;;8.27;3.72;;;;;;;19.89;96.83;101805.69;4790263;29;20059;-64
2023/08/16 01:17:36;;;;;;;9.10;3.72;;;;;;;19.89;97.32;101811.22;4785002;29;20418;-64
2023/08/16 01:20:07;;;;;;;8.15;3.72;;;;;;;19.89;97.42;101810.38;4760820;30;20059;-64
2023/08/16 01:23:07;;;;;;;9.48;3.70;;;;;;;19.87;97.75;101812.66;4799669;29;20412;-63
2023/08/16 01:26:06;;;;;;;9.57;3.70;;;;;;;19.85;97.79;101815.72;4788957;29;20561;-64
2023/08/16 01:28:35;;;;;;;6.63;3.53;;;;;;;19.84;97.49;101819.59;4790174;29;20057;-64
2023/08/16 01:31:04;;;;;;;12.10;3.80;;;;;;;19.87;97.09;101823.72;4774648;29;20043;-64
2023/08/16 01:33:32;;;;;;;8.23;3.88;;;;;;;19.87;96.77;101826.47;4790017;29;20054;-64
2023/08/16 01:36:00;;;;;;;8.75;3.88;;;;;;;19.83;96.42;101834.56;4789888;29;20066;-64
2023/08/16 01:38:28;;;;;;;9.48;3.75;;;;;;;19.83;96.07;101831.78;4804939;29;20055;-64
2023/08/16 01:41:10;;;;;;;9.20;3.78;;;;;;;19.84;95.77;101836.19;4774559;29;20077;-64
2023/08/16 01:43:39;;;;;;;8.45;3.70;;;;;;;19.81;95.56;101830.44;4775837;29;20055;-64
2023/08/16 01:46:08;;;;;;;8.55;4.30;;;;;;;19.76;95.93;101828.59;4790229;29;20522;-65
2023/08/16 01:48:37;;;;;;;9.15;4.05;;;;;;;19.73;96.31;101826.47;4804980;29;20055;-64
2023/08/16 01:51:06;;;;;;;8.05;3.75;;;;;;;19.71;96.52;101831.47;4804352;29;20059;-63
2023/08/16 01:53:35;;;;;;;12.10;4.40;;;;;;;19.72;97.02;101830.34;4789675;29;20055;-63
2023/08/16 01:56:03;;;;;;;6.15;3.70;;;;;;;19.75;97.05;101835.28;4772034;30;20055;-64
2023/08/16 01:58:30;;;;;;;8.40;4.20;;;;;;;19.78;96.85;101837.41;4799083;29;20058;-64
2023/08/16 02:00:58;;;;;;;10.07;4.32;;;;;;;19.78;96.59;101840.19;4806453;29;20054;-63
2023/08/16 02:03:26;;;;;;;15.35;4.60;;;;;;;19.78;96.65;101837.41;4823550;29;20098;-64
2023/08/16 02:05:54;;;;;;;8.57;4.25;;;;;;;19.76;96.85;101839.66;4810040;29;20050;-64
2023/08/16 02:08:22;;;;;;;7.60;4.20;;;;;;;19.73;97.35;101827.28;4796393;29;20061;-63
2023/08/16 02:10:50;;;;;;;12.55;4.40;;;;;;;19.74;97.46;101841.91;4827181;29;20410;-64
2023/08/16 02:13:17;;;;;;;8.38;4.00;;;;;;;19.68;97.69;101838.44;4810641;29;20061;-64
2023/08/16 02:15:45;;;;;;;6.97;4.25;;;;;;;19.68;97.88;101840.38;4810997;29;20090;-64
2023/08/16 02:18:13;;;;;;;9.02;4.05;;;;;;;19.69;97.80;101844.78;4810704;29;20046;-64
2023/08/16 02:20:41;;;;;;;9.45;4.68;;;;;;;19.67;97.80;101839.50;4810714;29;20051;-65
2023/08/16 02:23:09;;;;;;;12.25;4.45;;;;;;;19.67;97.43;101835.94;4824090;29;20056;-64
2023/08/16 02:25:36;;;;;;;9.90;4.70;;;;;;;19.64;97.89;101836.53;4825718;29;20463;-64
2023/08/16 02:28:04;;;;;;;10.20;4.28;;;;;;;19.57;98.44;101843.28;4825810;29;20059;-64
2023/08/16 02:30:32;;;;;;;10.48;4.93;;;;;;;19.55;98.35;101840.03;4821880;29;20499;-63
2023/08/16 02:33:00;;;;;;;6.68;4.28;;;;;;;19.49;98.06;101834.88;4810987;29;20054;-63
2023/08/16 02:35:28;;;;;;;10.65;4.65;;;;;;;19.44;98.94;101844.09;4810860;29;20050;-63
2023/08/16 02:37:56;;;;;;;11.35;4.40;;;;;;;19.42;99.36;101839.97;4826713;29;20050;-64
2023/08/16 02:40:24;;;;;;;13.40;4.88;;;;;;;19.38;99.57;101842.53;4808596;29;20049;-63
2023/08/16 02:42:52;;;;;;;9.68;4.20;;;;;;;19.25;100.00;101829.50;4810391;29;20056;-64
2023/08/16 02:45:20;;;;;;;7.93;4.38;;;;;;;19.25;100.00;101837.78;4810160;29;20058;-64
2023/08/16 02:47:48;;;;;;;9.20;4.63;;;;;;;19.31;100.00;101833.78;4795360;29;20066;-64
2023/08/16 02:50:17;;;;;;;10.68;4.50;;;;;;;19.33;100.00;101842.59;4809947;29;20058;-63
2023/08/16 02:52:44;;;;;;;9.60;4.43;;;;;;;19.35;100.00;101845.91;4826220;29;20054;-64
2023/08/16 02:55:12;;;;;;;10.88;4.47;;;;;;;19.35;100.00;101840.38;4809805;29;20069;-65
2023/08/16 02:57:40;;;;;;;8.52;4.30;;;;;;;19.33;99.82;101843.41;4795490;29;20054;-63
2023/08/16 03:00:10;;;;;;;10.15;4.65;;;;;;;19.33;100.00;101842.59;4809310;29;20425;-65
2023/08/16 03:02:39;;;;;;;7.97;4.40;;;;;;;19.31;99.94;101837.41;4809858;29;20054;-63
2023/08/16 03:05:08;;;;;;;10.15;4.55;;;;;;;19.15;100.00;101824.97;4810741;29;20399;-64
2023/08/16 03:07:36;;;;;;;11.48;4.65;;;;;;;19.09;100.00;101826.97;4825326;29;20392;-64
2023/08/16 03:10:04;;;;;;;9.73;4.82;;;;;;;19.08;100.00;101830.88;4825882;29;20055;-64
2023/08/16 03:12:32;;;;;;;11.77;4.80;;;;;;;19.05;100.00;101820.44;4826809;29;20061;-64
2023/08/16 03:15:00;;;;;;;11.07;4.70;;;;;;;19.03;100.00;101821.84;4826743;29;20050;-64
2023/08/16 03:17:28;;;;;;;9.02;4.18;;;;;;;19.02;100.00;101823.78;4790545;29;20069;-64
2023/08/16 03:19:56;;;;;;;8.82;4.40;;;;;;;18.98;100.00;101831.03;4825837;29;20050;-63
2023/08/16 03:22:26;;;;;;;9.02;4.10;;;;;;;18.89;100.00;101827.31;4795494;29;20381;-64
2023/08/16 03:24:53;;;;;;;12.30;4.75;;;;;;;18.96;100.00;101829.69;4808023;29;20081;-64
2023/08/16 03:27:22;;;;;;;8.15;4.30;;;;;;;19.02;100.00;101834.81;4824857;29;20054;-64
2023/08/16 03:29:50;;;;;;;8.80;4.45;;;;;;;19.05;100.00;101836.16;4825869;29;20388;-64
2023/08/16 03:32:18;;;;;;;11.02;4.30;;;;;;;19.09;100.00;101848.25;4826373;29;20065;-64
2023/08/16 03:34:46;;;;;;;9.77;4.28;;;;;;;19.12;100.00;101842.97;4809472;29;20388;-63
2023/08/16 03:37:15;;;;;;;8.68;4.43;;;;;;;19.03;100.00;101842.00;4825737;29;20080;-64
2023/08/16 03:39:43;;;;;;;7.95;3.80;;;;;;;18.90;100.00;101834.47;4808134;29;20054;-64
2023/08/16 03:42:11;;;;;;;10.75;4.18;;;;;;;18.85;100.00;101838.13;4820064;29;20058;-63
2023/08/16 03:44:39;;;;;;;8.90;4.18;;;;;;;18.86;100.00;101842.53;4825623;29;20055;-63
2023/08/16 03:47:07;;;;;;;8.82;4.00;;;;;;;18.89;100.00;101849.41;4824569;29;20207;-64
2023/08/16 03:49:35;;;;;;;9.23;4.10;;;;;;;18.96;100.00;101852.59;4785726;29;20115;-64
2023/08/16 03:52:03;;;;;;;9.05;4.43;;;;;;;18.99;100.00;101853.94;4809658;29;20403;-64
2023/08/16 03:54:33;;;;;;;8.15;4.05;;;;;;;18.96;100.00;101844.31;4809580;29;20054;-64
2023/08/16 03:57:02;;;;;;;10.23;4.22;;;;;;;18.95;100.00;101848.19;4825641;29;20061;-64
2023/08/16 03:59:29;;;;;;;10.55;4.45;;;;;;;18.86;100.00;101844.47;4830121;29;20053;-64
2023/08/16 04:01:57;;;;;;;9.35;4.50;;;;;;;18.82;100.00;101848.94;4824277;29;20061;-65
2023/08/16 04:04:25;;;;;;;8.98;4.10;;;;;;;18.77;100.00;101863.66;4824233;29;20053;-64
2023/08/16 04:06:52;;;;;;;10.32;3.92;;;;;;;18.74;100.00;101865.03;4807499;29;20046;-65
2023/08/16 04:09:20;;;;;;;8.77;4.40;;;;;;;18.75;100.00;101860.31;4799865;29;20050;-64
2023/08/16 04:11:50;;;;;;;8.98;4.25;;;;;;;18.70;100.00;101852.94;4807959;29;20049;-63
2023/08/16 04:14:18;;;;;;;13.68;3.88;;;;;;;18.67;100.00;101853.53;4807490;29;20058;-62
2023/08/16 04:16:46;;;;;;;7.65;3.70;;;;;;;18.66;100.00;101851.06;4793054;29;20492;-63
2023/08/16 04:19:15;;;;;;;7.57;3.58;;;;;;;18.70;100.00;101854.88;4824041;29;20111;-65
2023/08/16 04:21:43;;;;;;;7.80;3.80;;;;;;;18.66;100.00;101856.59;4808049;29;20050;-63
2023/08/16 04:24:11;;;;;;;7.00;4.07;;;;;;;18.62;100.00;101859.13;4792626;29;20079;-64
2023/08/16 04:26:39;;;;;;;8.38;3.92;;;;;;;18.57;100.00;101869.41;4792146;29;20062;-63
2023/08/16 04:29:07;;;;;;;9.82;4.20;;;;;;;18.52;100.00;101867.56;4808395;29;20061;-64
2023/08/16 04:31:34;;;;;;;11.00;4.03;;;;;;;18.48;100.00;101858.22;4806902;29;20061;-64
2023/08/16 04:34:02;;;;;;;10.70;4.03;;;;;;;18.52;100.00;101851.00;4808883;29;20050;-63
2023/08/16 04:36:30;;;;;;;7.65;3.90;;;;;;;18.50;100.00;101865.09;4820099;29;20058;-63
2023/08/16 04:38:58;;;;;;;7.07;3.75;;;;;;;18.50;100.00;101864.28;4805214;29;20047;-64
2023/08/16 04:41:27;;;;;;;8.63;3.97;;;;;;;18.58;100.00;101869.13;4806937;29;20057;-64
2023/08/16 04:43:54;;;;;;;8.65;4.35;;;;;;;18.62;100.00;101878.47;4807939;29;20051;-65
2023/08/16 04:46:22;;;;;;;9.15;4.25;;;;;;;18.61;100.00;101881.50;4807234;29;20054;-65
2023/08/16 04:48:50;;;;;;;10.10;4.28;;;;;;;18.60;100.00;101883.44;4822852;29;20111;-65
2023/08/16 04:51:18;;;;;;;5.60;3.28;;;;;;;18.63;100.00;101882.84;4808186;29;20511;-65
2023/08/16 04:53:46;;;;;;;10.60;3.83;;;;;;;18.69;100.00;101887.19;4800136;29;20456;-64
2023/08/16 04:56:15;;;;;;;9.55;3.78;;;;;;;18.73;100.00;101885.47;4810271;29;20075;-64
2023/08/16 04:58:43;;;;;;;9.50;3.90;;;;;;;18.65;100.00;101888.91;4808310;29;20054;-65
2023/08/16 05:01:11;;;;;;;17.63;3.90;;;;;;;18.58;100.00;101882.91;4807739;29;20058;-65
2023/08/16 05:03:48;;;;;;;11.15;4.15;;;;;;;18.50;100.00;101883.59;4814460;29;20050;-63
2023/08/16 05:06:16;;;;;;;5.82;3.38;;;;;;;18.48;100.00;101892.16;4823310;29;20050;-64
2023/08/16 05:08:44;;;;;;;8.38;3.95;;;;;;;18.37;100.00;101881.53;4792135;29;20106;-64
2023/08/16 05:11:12;;;;;;;10.32;3.75;;;;;;;18.40;100.00;101891.97;4808443;29;20054;-64
2023/08/16 05:13:40;;;;;;;9.20;4.45;;;;;;;18.29;100.00;101883.03;4823581;29;20417;-64
2023/08/16 05:16:08;;;;;;;8.05;4.20;;;;;;;18.30;100.00;101896.53;4824358;29;20206;-64
2023/08/16 05:18:36;;;;;;;6.30;3.90;;;;;;;18.26;100.00;101887.19;4807908;29;20418;-64
2023/08/16 05:21:04;;;;;;;9.38;4.22;;;;;;;18.29;100.00;101892.09;4808029;29;20054;-64
2023/08/16 05:23:33;;;;;;;6.50;3.60;;;;;;;18.28;100.00;101879.44;4792942;29;20050;-64
2023/08/16 05:26:01;;;;;;;8.35;3.60;;;;;;;18.33;100.00;101883.25;4822022;29;20062;-64
2023/08/16 05:28:29;;;;;;;7.57;3.50;;;;;;;18.38;100.00;101883.19;4778103;29;20054;-65
2023/08/16 05:31:07;;;;;;;6.55;3.72;;;;;;;18.47;100.00;101887.78;4809482;29;20047;-62
2023/08/16 05:33:35;;;;;;;7.10;3.70;;;;;;;18.53;100.00;101896.78;4820077;29;20114;-64
2023/08/16 05:36:03;;;;;;;6.43;3.28;;;;;;;18.56;100.00;101893.44;4823563;29;20050;-63
2023/08/16 05:38:31;;;;;;;7.00;3.50;;;;;;;18.63;100.00;101896.66;4810303;29;20050;-64
2023/08/16 05:41:00;;;;;;;6.80;3.63;;;;;;;18.66;100.00;101906.28;4827280;29;20058;-64
2023/08/16 05:43:27;;;;;;;10.25;3.20;;;;;;;18.68;100.00;101915.91;4810535;29;20125;-64
2023/08/16 05:45:55;;;;;;;7.50;3.40;;;;;;;18.72;100.00;101918.91;4826259;29;20064;-65
2023/08/16 05:48:23;;;;;;;5.82;3.22;;;;;;;18.72;100.00;101927.19;4811907;29;20042;-65
2023/08/16 05:50:50;;;;;;;8.07;3.55;;;;;;;18.73;100.00;101918.59;4811570;29;20418;-64
2023/08/16 05:53:18;;;;;;;7.70;3.20;;;;;;;18.74;100.00;101914.72;4811819;29;20050;-64
2023/08/16 05:55:46;;;;;;;10.20;3.60;;;;;;;18.71;100.00;101925.53;4826909;29;20073;-64
2023/08/16 05:58:14;;;;;;;9.57;3.72;;;;;;;18.71;100.00;101926.38;4828681;29;20161;-65
2023/08/16 06:00:41;;;;;;;7.65;3.50;;;;;;;18.67;100.00;101924.50;4817012;29;20050;-63
2023/08/16 06:03:10;;;;;;;5.72;3.10;;;;;;;18.60;100.00;101919.34;4813479;29;20057;-66
2023/08/16 06:05:38;;;;;;;7.55;3.05;;;;;;;18.55;100.00;101916.66;4826766;29;20061;-65
2023/08/16 06:08:08;;;;;;;7.82;3.33;;;;;;;18.44;100.00;101912.34;4152310;29;10000670;-66
2023/08/16 06:10:36;;;;;;;9.40;3.47;;;;;;;18.45;100.00;101908.50;4808237;29;20069;-65
2023/08/16 06:13:03;;;;;;;11.48;3.90;;;;;;;18.44;100.00;101915.94;4824192;29;20054;-64
2023/08/16 06:15:31;;;;;;;10.05;3.65;;;;;;;18.50;100.00;101927.75;4807410;29;20504;-63
2023/08/16 06:17:59;;;;;;;6.75;3.30;;;;;;;18.39;100.00;101923.47;4822778;29;20057;-64
2023/08/16 06:20:27;;;;;;;10.70;3.78;;;;;;;18.45;100.00;101927.81;4792785;29;20062;-65
2023/08/16 06:22:55;;;;;;;10.90;4.20;;;;;;;18.52;100.00;101920.00;4823736;29;20069;-65
2023/08/16 06:25:23;;;;;;;11.35;4.10;;;;;;;18.56;100.00;101923.78;4795575;29;20081;-65
2023/08/16 06:27:51;;;;;;;6.95;3.30;;;;;;;18.66;100.00;101945.75;4824780;29;20060;-65
2023/08/16 06:30:19;;;;;;;9.80;4.05;;;;;;;18.71;100.00;101942.94;4813038;29;20050;-66
2023/08/16 06:32:47;;;;;;;9.38;3.60;;;;;;;18.75;100.00;101951.44;4807614;29;20126;-65
2023/08/16 06:35:15;;;;;;;8.52;3.40;;;;;;;18.78;100.00;101944.53;4792886;29;20056;-65
2023/08/16 06:37:44;;;;;;;9.55;3.55;;;;;;;18.74;100.00;101938.78;4823920;29;20050;-65
2023/08/16 06:40:12;;;;;;;12.27;3.20;;;;;;;18.68;100.00;101926.13;4808178;29;20046;-65
2023/08/16 06:42:40;;;;;;;10.43;3.63;;;;;;;18.64;100.00;101923.16;4825560;29;20115;-65
2023/08/16 06:45:09;;;;;;;5.93;3.10;;;;;;;18.66;100.00;101928.38;4825473;29;20103;-68
2023/08/16 06:47:36;;;;;;;10.50;3.42;;;;;;;18.67;100.00;101925.31;4810791;29;20407;-66
2023/08/16 06:50:05;;;;;;;8.02;3.60;;;;;;;18.72;100.00;101935.47;4810562;29;20058;-66
2023/08/16 06:52:32;;;;;;;10.30;4.03;;;;;;;18.68;100.00;101926.94;4826460;29;20058;-66
2023/08/16 06:55:01;;;;;;;7.88;3.35;;;;;;;18.74;100.00;101925.78;4808527;29;20058;-67
2023/08/16 06:57:28;;;;;;;11.02;3.42;;;;;;;18.75;100.00;101921.06;4812644;29;20046;-66
2023/08/16 06:59:56;;;;;;;10.95;3.45;;;;;;;18.81;100.00;101932.91;4818257;29;20411;-66
2023/08/16 07:02:24;;;;;;;8.38;3.38;;;;;;;18.80;100.00;101928.50;4795873;29;20072;-66
2023/08/16 07:04:55;;;;;;;10.23;3.53;;;;;;;18.80;100.00;101934.03;4826630;29;20050;-65
2023/08/16 07:07:23;;;;;;;9.68;3.90;;;;;;;18.79;100.00;101937.91;4826547;29;20058;-65
2023/08/16 07:09:51;;;;;;;11.40;3.80;;;;;;;18.83;100.00;101941.72;4810230;29;20396;-65
2023/08/16 07:12:19;;;;;;;11.90;3.22;;;;;;;18.85;100.00;101939.47;4824418;29;20042;-65
2023/08/16 07:14:49;;;;;;;10.70;3.22;;;;;;;18.87;100.00;101954.63;4794093;29;20054;-66
2023/08/16 07:17:16;;;;;;;8.80;3.60;;;;;;;18.85;100.00;101947.75;4826816;29;20050;-66
2023/08/16 07:19:48;;;;;;;11.45;3.40;;;;;;;18.88;100.00;101941.63;4826160;29;20050;-66
2023/08/16 07:22:16;;;;;;;8.30;3.30;;;;;;;18.91;100.00;101933.59;4810272;29;20053;-64
2023/08/16 07:24:44;;;;;;;11.63;3.42;;;;;;;18.95;100.00;101939.31;4826737;29;20050;-64
2023/08/16 07:27:11;;;;;;;12.18;3.53;;;;;;;19.00;100.00;101942.03;4825474;29;20058;-65
2023/08/16 07:29:39;;;;;;;8.88;3.22;;;;;;;19.02;100.00;101938.97;4822955;29;20051;-65
2023/08/16 07:32:07;;;;;;;6.85;2.90;;;;;;;18.99;100.00;101948.66;4795572;29;20503;-65
2023/08/16 07:34:35;;;;;;;8.88;3.05;;;;;;;18.98;99.69;101947.03;4795073;29;20388;-64
2023/08/16 07:37:03;;;;;;;8.60;2.97;;;;;;;19.02;100.00;101948.06;4810950;29;20054;-63
2023/08/16 07:39:32;;;;;;;10.40;3.30;;;;;;;19.06;99.26;101942.78;4825756;29;20464;-65
2023/08/16 07:42:00;;;;;;;6.05;2.67;;;;;;;19.09;98.83;101937.47;4809998;29;20050;-64
2023/08/16 07:44:28;;;;;;;9.80;2.95;;;;;;;19.11;97.01;101956.53;4824205;29;20118;-64
2023/08/16 07:46:55;;;;;;;7.78;2.75;;;;;;;19.14;94.63;101956.72;4826578;29;20098;-64
2023/08/16 07:49:23;;;;;;;8.13;2.97;;;;;;;19.16;94.31;101959.22;4825425;29;20051;-65
2023/08/16 07:51:51;;;;;;;5.25;2.65;;;;;;;19.16;93.97;101953.69;4825197;29;20054;-64
2023/08/16 07:54:18;;;;;;;7.30;2.30;;;;;;;19.22;95.26;101948.88;4805918;29;20499;-65
2023/08/16 07:56:46;;;;;;;5.28;2.50;;;;;;;19.31;96.28;101955.38;4825921;29;20058;-65
2023/08/16 07:59:14;;;;;;;7.68;3.08;;;;;;;19.36;96.78;101953.38;4825547;29;20046;-64
2023/08/16 08:01:43;;;;;;;8.05;2.92;;;;;;;19.41;96.82;101958.03;4824944;29;20047;-65
2023/08/16 08:04:11;;;;;;;9.40;2.90;;;;;;;19.41;94.68;101955.25;4822355;29;20495;-65
2023/08/16 08:06:38;;;;;;;11.27;3.38;;;;;;;19.39;94.79;101956.69;4824547;29;20050;-65
2023/08/16 08:09:06;;;;;;;11.45;2.90;;;;;;;19.38;94.71;101961.38;4811291;29;20410;-65
2023/08/16 08:11:34;;;;;;;12.65;3.17;;;;;;;19.40;94.75;101969.38;4808819;29;20062;-65
2023/08/16 08:14:02;;;;;;;6.53;2.60;;;;;;;19.40;94.82;101972.94;4808990;29;20046;-66
2023/08/16 08:16:30;;;;;;;7.72;2.65;;;;;;;19.39;94.74;101967.75;4823750;29;20065;-65
2023/08/16 08:18:58;;;;;;;5.10;2.42;;;;;;;19.34;95.29;101974.16;4808079;29;20057;-64
2023/08/16 08:21:26;;;;;;;6.55;2.72;;;;;;;19.35;95.79;101967.50;4803136;29;20047;-65
2023/08/16 08:23:53;;;;;;;9.80;3.30;;;;;;;19.40;95.75;101970.19;4808763;29;20056;-65
2023/08/16 08:26:21;;;;;;;8.25;2.60;;;;;;;19.43;96.85;101969.56;4814050;29;20063;-66
2023/08/16 08:28:51;;;;;;;7.63;3.35;;;;;;;19.48;96.05;101974.19;4807087;29;20484;-65
2023/08/16 08:31:19;;;;;;;6.22;2.83;;;;;;;19.49;96.70;101976.69;4793878;29;20055;-64
2023/08/16 08:33:47;;;;;;;11.38;3.10;;;;;;;19.55;97.22;101980.19;4806662;29;20055;-64
2023/08/16 08:36:15;;;;;;;7.47;3.00;;;;;;;19.61;97.09;101980.94;4790389;29;20054;-65
2023/08/16 08:38:43;;;;;;;11.07;3.10;;;;;;;19.64;97.07;101981.13;4805400;29;20058;-64
2023/08/16 08:41:10;;;;;;;8.18;3.10;;;;;;;19.69;97.34;101988.56;4804983;29;20066;-64
2023/08/16 08:43:38;;;;;;;10.00;3.22;;;;;;;19.72;98.05;101976.88;4800132;29;20050;-64
2023/08/16 08:46:24;;;;;;;6.85;2.90;;;;;;;19.75;97.09;101987.38;4808482;29;20054;-64
2023/08/16 08:48:52;;;;;;;9.23;3.42;;;;;;;19.75;96.55;101977.13;4806435;29;20054;-64
2023/08/16 08:51:21;;;;;;;8.13;3.35;;;;;;;19.79;96.91;101978.16;4805695;29;20050;-63
2023/08/16 08:53:48;;;;;;;6.28;2.88;;;;;;;19.83;97.09;101978.38;4800070;29;20050;-64
2023/08/16 08:56:17;;;;;;;9.65;3.03;;;;;;;19.85;97.21;101976.13;4806553;29;20058;-64
2023/08/16 08:58:47;;;;;;;7.78;3.15;;;;;;;19.90;96.88;101973.28;4803953;29;20043;-63
2023/08/16 09:01:22;;;;;;;8.43;3.58;;;;;;;19.95;96.26;101983.44;4775641;29;20389;-63
2023/08/16 09:03:51;;;;;;;9.63;3.72;;;;;;;19.98;96.22;101986.41;4774742;29;20055;-63
2023/08/16 09:06:19;;;;;;;8.38;3.22;;;;;;;20.00;95.70;101989.69;4789177;29;20051;-64
2023/08/16 09:08:47;;;;;;;9.15;3.28;;;;;;;20.03;95.33;101987.44;4788755;29;20059;-65
2023/08/16 09:11:15;;;;;;;11.63;3.45;;;;;;;20.07;94.84;101982.94;4806222;29;20376;-63
2023/08/16 09:13:44;;;;;;;12.23;3.60;;;;;;;20.10;96.97;101987.88;4806049;29;20220;-65
2023/08/16 09:16:12;;;;;;;8.38;3.05;;;;;;;20.17;94.98;101991.06;4790804;29;20105;-64
2023/08/16 09:18:47;;;;;;;9.07;3.13;;;;;;;20.19;93.29;101981.31;4806353;29;20507;-64
2023/08/16 09:21:18;;;;;;;8.48;3.00;;;;;;;20.27;93.52;101981.75;4796144;29;20138;-64
2023/08/16 09:23:56;;;;;;;8.90;3.50;;;;;;;20.33;92.91;101975.81;4799701;29;20054;-64
2023/08/16 09:26:27;;;;;;;5.22;2.80;;;;;;;20.38;90.35;101972.94;4798778;29;20058;-64
2023/08/16 09:29:04;;;;;;;8.60;2.78;;;;;;;20.41;89.33;101969.56;4806439;29;20060;-65
2023/08/16 09:31:41;;;;;;;8.77;3.38;;;;;;;20.43;91.87;101969.25;4806197;29;20423;-64
2023/08/16 09:34:11;;;;;;;11.25;3.15;;;;;;;20.42;89.46;101971.22;4776609;29;20061;-64
2023/08/16 09:36:43;;;;;;;9.63;3.67;;;;;;;20.41;90.42;101975.09;4805999;29;20047;-63
2023/08/16 09:39:11;;;;;;;10.45;3.50;;;;;;;20.45;92.30;101977.25;4790353;29;20515;-64
2023/08/16 09:41:49;;;;;;;7.55;2.80;;;;;;;20.49;92.46;101981.03;4796693;29;20050;-64
2023/08/16 09:44:18;;;;;;;7.38;3.50;;;;;;;20.50;93.76;101975.22;4821822;29;20050;-64
2023/08/16 09:46:46;;;;;;;7.20;3.22;;;;;;;20.53;93.83;101976.53;4806421;29;20053;-64
2023/08/16 09:49:17;;;;;;;8.50;3.40;;;;;;;20.60;91.19;101986.09;4790905;29;20055;-64
2023/08/16 09:51:45;;;;;;;7.95;3.35;;;;;;;20.71;89.66;101983.13;4778572;29;20051;-62
2023/08/16 09:54:17;;;;;;;9.32;3.35;;;;;;;20.75;87.94;101981.38;4804561;29;20043;-65
2023/08/16 09:56:47;;;;;;;7.35;3.20;;;;;;;20.74;88.25;101977.81;4805931;29;20051;-65
2023/08/16 09:59:18;;;;;;;9.50;3.72;;;;;;;20.74;88.24;101980.56;4790780;29;20054;-64
2023/08/16 10:01:49;;;;;;;7.15;3.20;;;;;;;20.72;88.78;101988.38;4789988;29;20061;-64
2023/08/16 10:04:21;;;;;;;9.23;3.60;;;;;;;20.75;88.71;101979.44;4804728;29;20062;-63
2023/08/16 10:07:09;;;;;;;9.63;3.40;;;;;;;20.76;89.45;101980.28;4792347;29;20057;-64
2023/08/16 10:09:44;;;;;;;7.80;2.80;;;;;;;20.79;88.94;101988.78;4793035;29;20054;-65
2023/08/16 10:12:12;;;;;;;7.63;3.30;;;;;;;20.79;89.43;101977.69;4804892;29;20458;-64
2023/08/16 10:14:40;;;;;;;8.07;3.22;;;;;;;20.79;91.48;101983.22;4806320;29;20047;-64
2023/08/16 10:17:08;;;;;;;8.80;3.25;;;;;;;20.83;93.58;101977.91;4789720;29;20062;-65
2023/08/16 10:19:37;;;;;;;7.25;3.28;;;;;;;20.89;92.99;101975.84;4774585;29;20109;-66
2023/08/16 10:22:21;;;;;;;11.63;3.95;;;;;;;20.90;91.45;101972.78;4759080;29;20051;-66
2023/08/16 10:24:54;;;;;;;8.88;3.30;;;;;;;20.84;91.47;101979.53;4805890;29;20094;-65
2023/08/16 10:27:22;;;;;;;8.48;3.40;;;;;;;20.84;92.33;101974.81;4809370;29;20063;-67
2023/08/16 10:29:55;;;;;;;12.13;4.30;;;;;;;20.84;93.29;101979.53;4793237;29;20058;-66
2023/08/16 10:32:24;;;;;;;14.32;4.63;;;;;;;20.81;93.23;101975.44;4792888;29;20492;-65
2023/08/16 10:34:56;;;;;;;10.38;4.20;;;;;;;20.83;93.10;101970.41;4797121;29;20066;-65
2023/08/16 10:37:25;;;;;;;8.20;3.53;;;;;;;20.82;92.97;101971.53;4791763;29;20407;-65
2023/08/16 10:39:53;;;;;;;12.35;3.80;;;;;;;20.83;92.60;101978.72;4793981;29;20062;-63
2023/08/16 10:42:27;;;;;;;10.05;3.88;;;;;;;20.85;92.63;101972.84;4789387;29;20118;-64
2023/08/16 10:44:56;;;;;;;10.68;3.65;;;;;;;20.90;92.42;101967.22;4799543;29;20050;-64
2023/08/16 10:47:29;;;;;;;10.18;4.05;;;;;;;20.94;92.71;101973.75;4813072;29;20495;-65
2023/08/16 10:50:00;;;;;;;13.48;4.93;;;;;;;20.99;92.15;101970.06;4809045;29;20059;-65
2023/08/16 10:52:29;;;;;;;14.13;5.65;;;;;;;21.03;92.65;101960.00;4792384;29;20055;-64
2023/08/16 10:54:58;;;;;;;10.23;3.92;;;;;;;21.05;93.07;101964.09;4807729;29;20082;-65
2023/08/16 10:57:26;;;;;;;8.95;3.65;;;;;;;21.08;92.02;101962.66;4805905;29;20057;-66
2023/08/16 11:00:05;;;;;;;9.70;3.72;;;;;;;21.15;92.16;101962.25;4791809;29;20051;-66
2023/08/16 11:02:36;;;;;;;8.02;3.53;;;;;;;21.30;92.48;101974.94;4808333;29;20047;-65
2023/08/16 11:05:04;;;;;;;9.25;3.28;;;;;;;21.37;88.97;101962.25;4801643;29;20054;-64
2023/08/16 11:07:32;;;;;;;10.50;3.90;;;;;;;21.46;88.64;101956.81;4802603;29;20054;-62
2023/08/16 11:10:00;;;;;;;12.25;4.38;;;;;;;21.46;90.25;101956.81;4808831;29;20063;-64
2023/08/16 11:12:34;;;;;;;7.47;3.60;;;;;;;21.47;88.42;101964.00;4461288;29;10000037;-65
2023/08/16 11:15:02;;;;;;;7.78;3.30;;;;;;;21.45;86.47;101977.34;4818418;29;20046;-65
2023/08/16 11:17:32;;;;;;;7.55;3.17;;;;;;;21.42;86.54;101961.34;4797835;29;20062;-65
2023/08/16 11:20:01;;;;;;;9.18;3.55;;;;;;;21.46;86.90;101951.28;4805530;29;20059;-65
2023/08/16 11:22:29;;;;;;;8.00;3.53;;;;;;;21.56;87.61;101961.31;4806092;29;20062;-64
2023/08/16 11:25:01;;;;;;;10.85;3.40;;;;;;;21.60;87.65;101965.91;4788966;29;20062;-65
2023/08/16 11:27:29;;;;;;;7.40;2.97;;;;;;;21.62;88.34;101960.03;4804334;29;20062;-64
2023/08/16 11:29:59;;;;;;;11.90;3.35;;;;;;;21.59;86.59;101960.66;4805783;29;20077;-64
2023/08/16 11:32:45;;;;;;;9.38;3.65;;;;;;;21.58;86.61;101959.03;4806456;29;20066;-64
2023/08/16 11:35:13;;;;;;;;;;;;;;;21.58;85.80;101953.50;4804827;29;20062;-64
2023/08/16 11:37:41;;;;;;;9.10;3.67;;;;;;;21.62;86.33;101955.31;4804505;29;19981;-63
2023/08/16 11:40:09;;;;;;;8.77;3.22;;;;;;;21.58;84.85;101954.31;4804521;29;20118;-64
2023/08/16 11:42:37;;;;;;;8.65;3.42;;;;;;;21.59;84.54;101949.56;4804688;29;20047;-64
2023/08/16 11:45:24;;;;;;;7.32;2.90;;;;;;;21.58;85.44;101954.31;4804800;29;20094;-64
2023/08/16 11:47:53;;;;;;;8.32;3.05;;;;;;;21.56;85.89;101947.44;4805691;29;20059;-64
2023/08/16 11:50:24;;;;;;;9.23;3.22;;;;;;;21.58;85.64;101943.22;4809128;29;20404;-64
2023/08/16 11:53:02;;;;;;;8.52;3.38;;;;;;;21.57;85.38;101940.75;4822909;29;20447;-63